Time;durP1;ratioP1;P1;durP2;ratioP2;P2;SDS_P1;SDS_P2;PMS_P1;PMS_P2;Temp;Humidity;BMP_temperature;BMP_pressure;BME280_temperature;BME280_humidity;BME280_pressure;Samples;Min_cycle;Max_cycle;Signal;HPM_P1;HPM_P2
2023/11/23 00:02:07;;;;;;;26.75;18.65;;;;;;;;;;4972729;28;20384;-65
2023/11/23 00:04:33;;;;;;;23.30;17.45;;;;;;;;;;4970223;28;20026;-65
2023/11/23 00:06:59;;;;;;;22.00;17.67;;;;;;;;;;4958644;28;20031;-65
2023/11/23 00:09:26;;;;;;;21.70;16.55;;;;;;;;;;4971995;28;20126;-65
2023/11/23 00:11:52;;;;;;;23.10;17.63;;;;;;;;;;4972793;28;20026;-65
2023/11/23 00:14:18;;;;;;;23.13;17.58;;;;;;;;;;4972522;28;20019;-65
2023/11/23 00:16:44;;;;;;;21.17;16.65;;;;;;;;;;4965462;28;20069;-65
2023/11/23 00:19:11;;;;;;;20.58;15.68;;;;;;;;;;4970025;28;20046;-65
2023/11/23 00:21:37;;;;;;;23.77;16.15;;;;;;;;;;4971277;28;20424;-65
2023/11/23 00:24:03;;;;;;;25.13;17.35;;;;;;;;;;4970753;28;20031;-65
2023/11/23 00:26:29;;;;;;;23.13;15.82;;;;;;;;;;4970606;28;20039;-65
2023/11/23 00:28:55;;;;;;;17.45;14.90;;;;;;;;;;4963577;28;20596;-65
2023/11/23 00:31:21;;;;;;;22.13;17.50;;;;;;;;;;4970343;28;20082;-65
2023/11/23 00:33:47;;;;;;;24.00;17.02;;;;;;;;;;4971066;28;20045;-65
2023/11/23 00:36:13;;;;;;;26.27;16.83;;;;;;;;;;4971740;28;20030;-66
2023/11/23 00:38:42;;;;;;;23.52;16.73;;;;;;;;;;4969176;28;20437;-65
2023/11/23 00:41:08;;;;;;;22.75;16.48;;;;;;;;;;4971696;28;20026;-64
2023/11/23 00:43:35;;;;;;;24.08;17.60;;;;;;;;;;4971940;28;20752;-65
2023/11/23 00:46:03;;;;;;;22.02;16.70;;;;;;;;;;4966754;28;20484;-64
2023/11/23 00:48:29;;;;;;;25.15;17.48;;;;;;;;;;4971695;28;20030;-64
2023/11/23 00:50:55;;;;;;;22.17;16.50;;;;;;;;;;4970955;28;20849;-65
2023/11/23 00:53:21;;;;;;;20.80;16.13;;;;;;;;;;4971284;28;20039;-65
2023/11/23 00:55:48;;;;;;;21.85;16.08;;;;;;;;;;4970627;28;20081;-65
2023/11/23 00:58:14;;;;;;;21.75;16.20;;;;;;;;;;4970673;28;20118;-65
2023/11/23 01:00:40;;;;;;;20.88;15.88;;;;;;;;;;4971598;28;20039;-65
2023/11/23 01:03:07;;;;;;;25.23;15.93;;;;;;;;;;4972226;28;20401;-65
2023/11/23 01:05:34;;;;;;;19.75;14.77;;;;;;;;;;4969571;28;20034;-65
2023/11/23 01:08:00;;;;;;;20.23;15.57;;;;;;;;;;4955815;28;20018;-65
2023/11/23 01:10:26;;;;;;;23.80;16.40;;;;;;;;;;4957773;28;20050;-65
2023/11/23 01:12:54;;;;;;;21.20;15.73;;;;;;;;;;4957602;28;20024;-65
2023/11/23 01:15:20;;;;;;;20.85;15.70;;;;;;;;;;4967348;28;20019;-65
2023/11/23 01:17:46;;;;;;;19.40;15.02;;;;;;;;;;4969033;28;20038;-65
2023/11/23 01:20:12;;;;;;;21.80;16.42;;;;;;;;;;4957013;28;20050;-65
2023/11/23 01:22:38;;;;;;;18.27;14.75;;;;;;;;;;4964284;28;20116;-65
2023/11/23 01:25:08;;;;;;;20.67;16.02;;;;;;;;;;4965648;28;20164;-65
2023/11/23 01:27:34;;;;;;;19.88;15.07;;;;;;;;;;4974523;28;20023;-65
2023/11/23 01:30:00;;;;;;;22.52;15.65;;;;;;;;;;4973690;28;20515;-65
2023/11/23 01:32:26;;;;;;;18.92;14.98;;;;;;;;;;4974443;28;20062;-65
2023/11/23 01:34:52;;;;;;;21.52;15.35;;;;;;;;;;4973681;28;20045;-65
2023/11/23 01:37:18;;;;;;;15.77;13.93;;;;;;;;;;4974338;28;20023;-65
2023/11/23 01:39:44;;;;;;;21.13;14.45;;;;;;;;;;4974578;28;20055;-65
2023/11/23 01:42:10;;;;;;;18.00;14.23;;;;;;;;;;4974423;28;20026;-65
2023/11/23 01:44:36;;;;;;;25.10;14.70;;;;;;;;;;4958271;28;20034;-65
2023/11/23 01:47:04;;;;;;;21.75;15.38;;;;;;;;;;4971380;28;20023;-65
2023/11/23 01:49:31;;;;;;;18.58;14.48;;;;;;;;;;4971769;28;20030;-65
2023/11/23 01:51:57;;;;;;;19.75;14.27;;;;;;;;;;4974413;28;20030;-65
2023/11/23 01:54:23;;;;;;;19.15;14.30;;;;;;;;;;4961483;28;20069;-65
2023/11/23 01:56:51;;;;;;;17.17;14.13;;;;;;;;;;4975356;28;20038;-65
2023/11/23 01:59:17;;;;;;;22.58;15.38;;;;;;;;;;4973969;28;20413;-65
2023/11/23 02:01:44;;;;;;;18.73;14.35;;;;;;;;;;4972936;28;20030;-65
2023/11/23 02:04:10;;;;;;;21.88;14.90;;;;;;;;;;4971256;28;20783;-65
2023/11/23 02:06:37;;;;;;;16.45;14.48;;;;;;;;;;4956496;28;20431;-65
2023/11/23 02:09:03;;;;;;;23.48;15.45;;;;;;;;;;4972424;28;20150;-65
2023/11/23 02:11:29;;;;;;;19.85;14.02;;;;;;;;;;4972893;28;20034;-65
2023/11/23 02:13:56;;;;;;;18.30;14.10;;;;;;;;;;4972389;28;20030;-65
2023/11/23 02:16:22;;;;;;;16.95;13.70;;;;;;;;;;4972156;28;20054;-65
2023/11/23 02:18:48;;;;;;;18.17;13.75;;;;;;;;;;4967203;28;20043;-65
2023/11/23 02:21:14;;;;;;;16.67;13.68;;;;;;;;;;4968629;28;20492;-65
2023/11/23 02:23:40;;;;;;;19.52;14.25;;;;;;;;;;4967949;28;20030;-65
2023/11/23 02:26:06;;;;;;;17.80;14.10;;;;;;;;;;4956172;28;20089;-65
2023/11/23 02:28:33;;;;;;;19.17;14.18;;;;;;;;;;4959971;28;20122;-65
2023/11/23 02:31:00;;;;;;;20.88;14.50;;;;;;;;;;4966293;28;20494;-65
2023/11/23 02:33:26;;;;;;;17.38;14.52;;;;;;;;;;4972072;28;20069;-65
2023/11/23 02:35:52;;;;;;;18.70;13.95;;;;;;;;;;4971170;28;20078;-65
2023/11/23 02:38:18;;;;;;;18.45;14.52;;;;;;;;;;4958865;28;20023;-65
2023/11/23 02:40:44;;;;;;;21.63;14.25;;;;;;;;;;4974129;28;20508;-65
2023/11/23 02:43:10;;;;;;;17.23;14.73;;;;;;;;;;4973795;28;20094;-65
2023/11/23 02:45:36;;;;;;;18.35;14.48;;;;;;;;;;4973557;28;20034;-65
2023/11/23 02:48:04;;;;;;;18.13;14.25;;;;;;;;;;4973126;28;20508;-65
2023/11/23 02:50:30;;;;;;;18.02;13.75;;;;;;;;;;4973968;28;20023;-65
2023/11/23 02:52:56;;;;;;;18.08;14.80;;;;;;;;;;4972965;28;20069;-65
2023/11/23 02:55:22;;;;;;;16.88;14.88;;;;;;;;;;4973694;28;20061;-65
2023/11/23 02:57:48;;;;;;;17.23;14.75;;;;;;;;;;4971232;28;20035;-65
2023/11/23 03:00:14;;;;;;;20.45;14.10;;;;;;;;;;4955377;28;20404;-65
2023/11/23 03:02:40;;;;;;;20.83;14.57;;;;;;;;;;4971288;28;20401;-65
2023/11/23 03:05:06;;;;;;;16.90;13.73;;;;;;;;;;4972854;28;20039;-65
2023/11/23 03:07:32;;;;;;;17.85;14.65;;;;;;;;;;4972346;28;20035;-65
2023/11/23 03:10:01;;;;;;;20.45;14.15;;;;;;;;;;4969423;28;20040;-65
2023/11/23 03:12:28;;;;;;;19.73;14.25;;;;;;;;;;4971763;28;20030;-65
2023/11/23 03:14:55;;;;;;;19.92;15.15;;;;;;;;;;4969308;28;20165;-65
2023/11/23 03:17:21;;;;;;;18.88;15.63;;;;;;;;;;4969031;28;20026;-65
2023/11/23 03:19:47;;;;;;;20.80;15.02;;;;;;;;;;4971808;28;20049;-66
2023/11/23 03:22:14;;;;;;;23.52;15.48;;;;;;;;;;4973424;28;20485;-65
2023/11/23 03:24:40;;;;;;;20.70;16.45;;;;;;;;;;4972455;28;20062;-65
2023/11/23 03:27:09;;;;;;;22.75;16.33;;;;;;;;;;4973226;28;20113;-65
2023/11/23 03:29:35;;;;;;;22.90;16.75;;;;;;;;;;4971408;28;20023;-64
2023/11/23 03:32:01;;;;;;;22.33;16.40;;;;;;;;;;4962971;28;20129;-65
2023/11/23 03:34:27;;;;;;;23.15;16.85;;;;;;;;;;4971789;28;20039;-65
2023/11/23 03:36:55;;;;;;;19.17;15.63;;;;;;;;;;4971832;28;20027;-65
2023/11/23 03:39:21;;;;;;;24.30;16.17;;;;;;;;;;4972244;28;20365;-65
2023/11/23 03:41:47;;;;;;;22.13;16.08;;;;;;;;;;4964983;28;20023;-65
2023/11/23 03:44:14;;;;;;;22.77;16.75;;;;;;;;;;4968979;28;20031;-65
2023/11/23 03:46:40;;;;;;;27.33;17.42;;;;;;;;;;4972932;28;20030;-65
2023/11/23 03:49:06;;;;;;;21.98;17.17;;;;;;;;;;4972999;28;20074;-65
2023/11/23 03:51:32;;;;;;;21.55;15.30;;;;;;;;;;4969025;28;20058;-65
2023/11/23 03:53:58;;;;;;;21.70;16.33;;;;;;;;;;4970315;28;20515;-65
2023/11/23 03:56:24;;;;;;;25.83;17.58;;;;;;;;;;4971968;28;20058;-65
2023/11/23 03:58:50;;;;;;;19.63;16.48;;;;;;;;;;4971947;28;20077;-65
2023/11/23 04:01:17;;;;;;;21.67;16.20;;;;;;;;;;4971144;28;20542;-66
2023/11/23 04:03:47;;;;;;;23.95;17.00;;;;;;;;;;4968041;28;20026;-66
2023/11/23 04:06:13;;;;;;;21.15;15.82;;;;;;;;;;4966472;28;20120;-65
2023/11/23 04:08:40;;;;;;;20.75;16.00;;;;;;;;;;4966658;28;20030;-66
2023/11/23 04:11:06;;;;;;;19.48;15.65;;;;;;;;;;4965917;28;20031;-66
2023/11/23 04:13:32;;;;;;;24.73;16.73;;;;;;;;;;4963394;28;20039;-65
2023/11/23 04:15:58;;;;;;;22.65;15.50;;;;;;;;;;4968994;28;20384;-65
2023/11/23 04:18:24;;;;;;;21.88;15.88;;;;;;;;;;4962802;28;20039;-65
2023/11/23 04:20:49;;;;;;;20.48;16.02;;;;;;;;;;4971446;28;20045;-65
2023/11/23 04:23:16;;;;;;;23.38;16.90;;;;;;;;;;4971083;28;20077;-66
2023/11/23 04:25:42;;;;;;;20.17;16.40;;;;;;;;;;4961134;28;20031;-65
2023/11/23 04:28:08;;;;;;;21.58;16.40;;;;;;;;;;4971309;28;20031;-65
2023/11/23 04:30:34;;;;;;;19.23;16.05;;;;;;;;;;4967285;28;20139;-65
2023/11/23 04:33:00;;;;;;;23.20;15.95;;;;;;;;;;4965878;28;20026;-65
2023/11/23 04:35:27;;;;;;;23.70;16.25;;;;;;;;;;4970109;28;20097;-65
2023/11/23 04:37:53;;;;;;;26.23;16.65;;;;;;;;;;4970813;28;20069;-65
2023/11/23 04:40:19;;;;;;;22.25;16.70;;;;;;;;;;4969863;28;20074;-67
2023/11/23 04:42:45;;;;;;;24.05;16.27;;;;;;;;;;4972072;28;20070;-65
2023/11/23 04:45:11;;;;;;;23.65;17.23;;;;;;;;;;4971637;28;20026;-65
2023/11/23 04:47:37;;;;;;;24.05;16.33;;;;;;;;;;4973632;28;20027;-65
2023/11/23 04:50:04;;;;;;;20.55;16.05;;;;;;;;;;4974144;28;20027;-64
2023/11/23 04:52:30;;;;;;;24.17;17.00;;;;;;;;;;4974311;28;20448;-65
2023/11/23 04:54:56;;;;;;;22.38;16.17;;;;;;;;;;4976055;28;20034;-64
2023/11/23 04:57:23;;;;;;;24.38;16.73;;;;;;;;;;4976027;28;20035;-65
2023/11/23 04:59:49;;;;;;;23.60;15.93;;;;;;;;;;4976004;28;20034;-65
2023/11/23 05:02:15;;;;;;;21.52;16.98;;;;;;;;;;4973784;28;20049;-64
2023/11/23 05:04:41;;;;;;;21.92;16.00;;;;;;;;;;4974510;28;20536;-65
2023/11/23 05:07:07;;;;;;;20.13;15.30;;;;;;;;;;4974110;28;20030;-65
2023/11/23 05:09:33;;;;;;;24.38;17.02;;;;;;;;;;4972731;28;20031;-66
2023/11/23 05:11:59;;;;;;;25.58;17.15;;;;;;;;;;4962806;28;20034;-64
2023/11/23 05:14:25;;;;;;;22.90;17.08;;;;;;;;;;4973742;28;20409;-65
2023/11/23 05:16:51;;;;;;;20.83;15.70;;;;;;;;;;4963835;28;20062;-64
2023/11/23 05:19:19;;;;;;;22.20;15.65;;;;;;;;;;4975627;28;20039;-64
2023/11/23 05:21:45;;;;;;;22.50;15.98;;;;;;;;;;4946063;28;20034;-64
2023/11/23 05:24:11;;;;;;;20.85;15.18;;;;;;;;;;4970841;28;20031;-65
2023/11/23 05:26:37;;;;;;;21.88;15.93;;;;;;;;;;4974825;28;20030;-65
2023/11/23 05:29:03;;;;;;;20.05;14.68;;;;;;;;;;4967387;28;20341;-64
2023/11/23 05:31:29;;;;;;;22.85;15.65;;;;;;;;;;4974250;28;20046;-65
2023/11/23 05:33:55;;;;;;;24.13;16.60;;;;;;;;;;4975903;28;20110;-64
2023/11/23 05:36:22;;;;;;;22.15;15.75;;;;;;;;;;4973422;28;20035;-65
2023/11/23 05:38:48;;;;;;;20.40;15.48;;;;;;;;;;4973718;28;20065;-65
2023/11/23 05:41:14;;;;;;;19.33;13.43;;;;;;;;;;4985059;28;20065;-65
2023/11/23 05:43:41;;;;;;;16.95;12.32;;;;;;;;;;4981757;28;20078;-64
2023/11/23 05:46:07;;;;;;;19.98;12.63;;;;;;;;;;4971843;28;20034;-65
2023/11/23 05:48:33;;;;;;;13.50;11.02;;;;;;;;;;4960268;28;20034;-65
2023/11/23 05:50:59;;;;;;;17.90;12.50;;;;;;;;;;4968218;28;20551;-65
2023/11/23 05:53:25;;;;;;;17.77;10.52;;;;;;;;;;4952194;28;20030;-66
2023/11/23 05:55:51;;;;;;;15.55;10.75;;;;;;;;;;4959347;28;20057;-66
2023/11/23 05:58:17;;;;;;;15.38;11.73;;;;;;;;;;4964597;28;20034;-65
2023/11/23 06:00:43;;;;;;;14.70;11.00;;;;;;;;;;4965909;28;20039;-65
2023/11/23 06:03:09;;;;;;;15.35;10.85;;;;;;;;;;4973098;28;20031;-65
2023/11/23 06:05:35;;;;;;;15.80;10.93;;;;;;;;;;4966084;28;20035;-65
2023/11/23 06:08:01;;;;;;;16.08;10.55;;;;;;;;;;4968928;28;20023;-65
2023/11/23 06:10:28;;;;;;;14.43;10.18;;;;;;;;;;4955269;28;20049;-65
2023/11/23 06:12:54;;;;;;;16.10;10.63;;;;;;;;;;4974746;28;20113;-65
2023/11/23 06:15:20;;;;;;;13.13;10.70;;;;;;;;;;4956945;28;20452;-65
2023/11/23 06:17:46;;;;;;;15.40;10.95;;;;;;;;;;4973499;28;20098;-65
2023/11/23 06:20:12;;;;;;;13.90;10.23;;;;;;;;;;4974406;28;20122;-65
2023/11/23 06:22:38;;;;;;;12.25;9.20;;;;;;;;;;4972993;28;20101;-65
2023/11/23 06:25:05;;;;;;;15.73;10.15;;;;;;;;;;4972934;28;20520;-65
2023/11/23 06:27:32;;;;;;;15.02;10.73;;;;;;;;;;4974494;28;20027;-66
2023/11/23 06:29:58;;;;;;;17.25;10.80;;;;;;;;;;4974225;28;20038;-65
2023/11/23 06:32:24;;;;;;;13.68;9.70;;;;;;;;;;4973073;28;20481;-65
2023/11/23 06:34:50;;;;;;;12.95;9.20;;;;;;;;;;4974212;28;20061;-65
2023/11/23 06:37:16;;;;;;;13.27;10.15;;;;;;;;;;4973224;28;20410;-66
2023/11/23 06:39:42;;;;;;;16.65;10.52;;;;;;;;;;4948100;28;20125;-65
2023/11/23 06:42:08;;;;;;;13.63;10.70;;;;;;;;;;4972736;28;20026;-65
2023/11/23 06:44:34;;;;;;;16.05;10.48;;;;;;;;;;4966645;28;20042;-65
2023/11/23 06:47:00;;;;;;;14.27;10.50;;;;;;;;;;4974281;28;20568;-65
2023/11/23 06:49:27;;;;;;;13.30;10.13;;;;;;;;;;4973991;28;20037;-65
2023/11/23 06:51:54;;;;;;;15.85;10.07;;;;;;;;;;4970542;28;20035;-65
2023/11/23 06:54:20;;;;;;;12.30;10.50;;;;;;;;;;4973819;28;20033;-65
2023/11/23 06:56:46;;;;;;;15.85;10.98;;;;;;;;;;4973789;28;20026;-66
2023/11/23 06:59:12;;;;;;;17.17;10.35;;;;;;;;;;4973504;28;20038;-65
2023/11/23 07:01:38;;;;;;;14.15;9.32;;;;;;;;;;4972144;28;20106;-65
2023/11/23 07:04:04;;;;;;;14.75;10.00;;;;;;;;;;4973818;28;20211;-65
2023/11/23 07:06:30;;;;;;;14.73;9.00;;;;;;;;;;4970924;28;20023;-66
2023/11/23 07:08:57;;;;;;;14.80;8.70;;;;;;;;;;4973703;28;20038;-66
2023/11/23 07:11:23;;;;;;;15.48;9.93;;;;;;;;;;4973706;28;20018;-65
2023/11/23 07:13:49;;;;;;;11.35;8.30;;;;;;;;;;4973692;28;20033;-65
2023/11/23 07:16:16;;;;;;;17.75;8.63;;;;;;;;;;4973563;28;20396;-65
2023/11/23 07:18:42;;;;;;;11.95;8.43;;;;;;;;;;4971600;28;20034;-66
2023/11/23 07:21:08;;;;;;;16.95;8.50;;;;;;;;;;4957250;28;20030;-65
2023/11/23 07:23:36;;;;;;;11.80;8.82;;;;;;;;;;4973785;28;20022;-66
2023/11/23 07:26:02;;;;;;;13.35;8.60;;;;;;;;;;4971484;28;20020;-65
2023/11/23 07:28:29;;;;;;;11.35;8.10;;;;;;;;;;4973112;28;20030;-66
2023/11/23 07:30:56;;;;;;;16.35;9.50;;;;;;;;;;4981314;28;20161;-66
2023/11/23 07:33:24;;;;;;;13.55;8.85;;;;;;;;;;4973226;28;20027;-65
2023/11/23 07:35:51;;;;;;;18.83;8.75;;;;;;;;;;4972689;28;20039;-65
2023/11/23 07:38:17;;;;;;;14.40;8.52;;;;;;;;;;4975768;28;20131;-65
2023/11/23 07:40:43;;;;;;;14.63;10.27;;;;;;;;;;4977013;28;20033;-66
2023/11/23 07:43:09;;;;;;;12.82;8.93;;;;;;;;;;4977452;28;20385;-66
2023/11/23 07:45:37;;;;;;;12.98;9.13;;;;;;;;;;4976708;28;20026;-65
2023/11/23 07:48:08;;;;;;;14.70;9.85;;;;;;;;;;4975978;28;20051;-66
2023/11/23 07:50:35;;;;;;;12.77;8.98;;;;;;;;;;4973129;28;20027;-65
2023/11/23 07:53:01;;;;;;;14.48;9.30;;;;;;;;;;4976483;28;20512;-65
2023/11/23 07:55:27;;;;;;;13.88;9.88;;;;;;;;;;4979700;28;20499;-65
2023/11/23 07:57:53;;;;;;;14.80;10.05;;;;;;;;;;4976648;28;20027;-65
2023/11/23 08:00:19;;;;;;;14.82;9.70;;;;;;;;;;4973910;28;20086;-65
2023/11/23 08:02:45;;;;;;;14.30;9.93;;;;;;;;;;4965320;28;20114;-63
2023/11/23 08:05:11;;;;;;;16.60;10.43;;;;;;;;;;4969219;28;20035;-53
2023/11/23 08:07:37;;;;;;;16.80;10.63;;;;;;;;;;4972293;28;20127;-54
2023/11/23 08:10:08;;;;;;;16.27;11.40;;;;;;;;;;4975251;28;20031;-66
2023/11/23 08:12:34;;;;;;;15.35;9.85;;;;;;;;;;4963797;28;20031;-66
2023/11/23 08:15:00;;;;;;;14.25;10.23;;;;;;;;;;4970663;28;20058;-62
2023/11/23 08:17:27;;;;;;;13.98;9.90;;;;;;;;;;4969595;28;20389;-64
2023/11/23 08:19:53;;;;;;;13.32;11.25;;;;;;;;;;4968323;28;20045;-65
2023/11/23 08:22:21;;;;;;;15.55;11.23;;;;;;;;;;4972883;28;20030;-64
2023/11/23 08:24:47;;;;;;;13.63;11.00;;;;;;;;;;4973558;28;20481;-59
2023/11/23 08:27:13;;;;;;;17.67;12.23;;;;;;;;;;4982426;28;20050;-63
2023/11/23 08:29:39;;;;;;;16.85;10.98;;;;;;;;;;4974535;28;20534;-58
2023/11/23 08:32:08;;;;;;;14.82;10.85;;;;;;;;;;4974443;28;20038;-50
2023/11/23 08:34:34;;;;;;;18.38;10.93;;;;;;;;;;4973680;28;20039;-54
2023/11/23 08:37:00;;;;;;;14.77;11.48;;;;;;;;;;4974081;28;20094;-51
2023/11/23 08:39:26;;;;;;;17.15;11.00;;;;;;;;;;4975020;28;20176;-51
2023/11/23 08:44:55;;;;;;;15.60;10.52;;;;;;;;;;4966797;28;20030;-57
2023/11/23 08:47:21;;;;;;;13.68;9.45;;;;;;;;;;4974615;28;20038;-48
2023/11/23 08:49:49;;;;;;;12.95;9.88;;;;;;;;;;4975264;28;20128;-52
2023/11/23 08:52:48;;;;;;;12.88;9.23;;;;;;;;;;4967341;28;20023;-62
2023/11/23 08:55:14;;;;;;;14.00;10.02;;;;;;;;;;4965095;28;20488;-52
2023/11/23 08:57:40;;;;;;;11.80;10.45;;;;;;;;;;4975955;28;20130;-47
2023/11/23 09:00:10;;;;;;;15.55;11.43;;;;;;;;;;4974713;28;20043;-48
2023/11/23 09:02:37;;;;;;;14.65;10.73;;;;;;;;;;4974751;28;20027;-52
2023/11/23 09:05:05;;;;;;;16.48;10.65;;;;;;;;;;4958330;28;20373;-54
2023/11/23 09:07:32;;;;;;;24.42;11.13;;;;;;;;;;4971505;28;20026;-52
2023/11/23 09:09:58;;;;;;;12.60;9.98;;;;;;;;;;4974805;28;20037;-55
2023/11/23 09:12:27;;;;;;;15.35;10.73;;;;;;;;;;4970424;28;20027;-51
2023/11/23 09:14:56;;;;;;;15.48;9.93;;;;;;;;;;4973018;28;20484;-55
2023/11/23 09:17:22;;;;;;;16.10;9.85;;;;;;;;;;4972598;28;20027;-54
2023/11/23 09:19:48;;;;;;;14.98;9.73;;;;;;;;;;4967091;28;20035;-51
2023/11/23 09:22:14;;;;;;;12.88;9.35;;;;;;;;;;4971502;28;20031;-50
2023/11/23 09:24:40;;;;;;;15.10;11.05;;;;;;;;;;4972640;28;20039;-54
2023/11/23 09:27:06;;;;;;;13.27;10.90;;;;;;;;;;4972192;28;20030;-54
2023/11/23 09:29:32;;;;;;;16.42;10.23;;;;;;;;;;4973078;28;20468;-51
2023/11/23 09:31:58;;;;;;;16.25;10.77;;;;;;;;;;4973295;28;20046;-52
2023/11/23 09:34:24;;;;;;;15.82;10.27;;;;;;;;;;4973391;28;20118;-53
2023/11/23 09:36:50;;;;;;;15.10;10.40;;;;;;;;;;4974723;28;20023;-54
2023/11/23 09:39:20;;;;;;;17.05;10.00;;;;;;;;;;4965517;28;20039;-59
2023/11/23 09:41:47;;;;;;;18.27;9.63;;;;;;;;;;4956140;28;20023;-56
2023/11/23 09:44:16;;;;;;;15.93;11.25;;;;;;;;;;4974138;28;20119;-50
2023/11/23 09:46:43;;;;;;;15.02;10.15;;;;;;;;;;4974826;28;20039;-52
2023/11/23 09:49:12;;;;;;;15.45;9.85;;;;;;;;;;4972981;28;20038;-56
2023/11/23 09:51:40;;;;;;;17.42;11.63;;;;;;;;;;4973744;28;20110;-57
2023/11/23 09:54:07;;;;;;;15.77;10.73;;;;;;;;;;4973861;28;20023;-59
2023/11/23 09:56:49;;;;;;;14.60;11.23;;;;;;;;;;4958971;28;20031;-60
2023/11/23 09:59:15;;;;;;;17.73;12.00;;;;;;;;;;4961442;28;20404;-54
2023/11/23 10:01:43;;;;;;;18.48;12.07;;;;;;;;;;4974374;28;20030;-46
2023/11/23 10:04:11;;;;;;;15.18;9.98;;;;;;;;;;4970717;28;20027;-46
2023/11/23 10:06:37;;;;;;;16.77;10.45;;;;;;;;;;4972924;28;20023;-50
2023/11/23 10:09:06;;;;;;;14.77;10.30;;;;;;;;;;4973825;28;20114;-54
2023/11/23 10:11:32;;;;;;;17.85;12.68;;;;;;;;;;4972883;28;20026;-48
2023/11/23 10:13:58;;;;;;;24.88;13.57;;;;;;;;;;4965412;28;20508;-47
2023/11/23 10:16:25;;;;;;;16.00;12.50;;;;;;;;;;4959222;28;20117;-48
2023/11/23 10:18:51;;;;;;;15.60;12.70;;;;;;;;;;4959698;28;20037;-52
2023/11/23 10:21:17;;;;;;;20.73;12.93;;;;;;;;;;4962789;28;20094;-60
2023/11/23 10:23:43;;;;;;;16.75;11.48;;;;;;;;;;4956907;28;20024;-53
2023/11/23 10:26:10;;;;;;;22.60;13.07;;;;;;;;;;4965905;28;20037;-54
2023/11/23 10:28:36;;;;;;;15.88;11.68;;;;;;;;;;4970880;28;20046;-54
2023/11/23 10:31:06;;;;;;;19.17;12.18;;;;;;;;;;4955932;28;20039;-59
2023/11/23 10:33:35;;;;;;;18.40;11.60;;;;;;;;;;4966606;28;20384;-59
2023/11/23 10:36:05;;;;;;;20.95;11.90;;;;;;;;;;4965917;28;20141;-58
2023/11/23 10:38:38;;;;;;;24.40;13.48;;;;;;;;;;4972669;28;20472;-56
2023/11/23 10:41:06;;;;;;;19.23;12.90;;;;;;;;;;4965249;28;20084;-51
2023/11/23 10:43:34;;;;;;;16.63;12.57;;;;;;;;;;4972170;28;20077;-54
2023/11/23 10:46:00;;;;;;;16.45;13.07;;;;;;;;;;4972085;28;20052;-50
2023/11/23 10:48:27;;;;;;;16.40;10.98;;;;;;;;;;4973508;28;20031;-56
2023/11/23 10:50:55;;;;;;;14.35;10.13;;;;;;;;;;4973345;28;20031;-52
2023/11/23 10:53:21;;;;;;;14.05;11.10;;;;;;;;;;4967025;28;20464;-53
2023/11/23 10:55:49;;;;;;;14.95;11.95;;;;;;;;;;4972932;28;20046;-53
2023/11/23 10:58:17;;;;;;;14.43;10.63;;;;;;;;;;4972189;28;20493;-56
2023/11/23 11:00:44;;;;;;;16.17;11.25;;;;;;;;;;4971995;28;20136;-60
2023/11/23 11:03:12;;;;;;;19.23;12.35;;;;;;;;;;4973001;28;20026;-61
2023/11/23 11:05:45;;;;;;;19.35;13.10;;;;;;;;;;4973058;28;20137;-57
2023/11/23 11:08:17;;;;;;;17.42;13.07;;;;;;;;;;4971904;28;20030;-57
2023/11/23 11:10:43;;;;;;;15.75;12.15;;;;;;;;;;4973003;28;20329;-53
2023/11/23 11:13:13;;;;;;;23.08;12.02;;;;;;;;;;4972774;28;20105;-60
2023/11/23 11:16:11;;;;;;;12.88;11.55;;;;;;;;;;4972373;28;20030;-57
2023/11/23 11:18:40;;;;;;;17.65;12.60;;;;;;;;;;4925719;28;20043;-58
2023/11/23 11:21:07;;;;;;;15.00;10.68;;;;;;;;;;4966332;28;20026;-59
2023/11/23 11:23:40;;;;;;;11.30;9.18;;;;;;;;;;4968579;28;20481;-57
2023/11/23 11:26:09;;;;;;;17.65;10.27;;;;;;;;;;4969915;28;20019;-61
2023/11/23 11:28:36;;;;;;;12.65;10.18;;;;;;;;;;4967992;28;20031;-58
2023/11/23 11:31:25;;;;;;;15.63;10.88;;;;;;;;;;4965071;28;20503;-60
2023/11/23 11:33:51;;;;;;;15.27;11.35;;;;;;;;;;4969585;28;20397;-61
2023/11/23 11:36:17;;;;;;;13.73;10.75;;;;;;;;;;4971253;28;20126;-62
2023/11/23 11:38:54;;;;;;;17.02;11.82;;;;;;;;;;4971599;28;20031;-51
2023/11/23 11:41:20;;;;;;;15.27;12.07;;;;;;;;;;4944267;29;20371;-53
2023/11/23 11:43:47;;;;;;;15.52;11.63;;;;;;;;;;4971381;28;20023;-58
2023/11/23 11:46:13;;;;;;;15.30;9.38;;;;;;;;;;4961416;28;20712;-66
2023/11/23 11:48:39;;;;;;;11.93;9.20;;;;;;;;;;4972133;28;20078;-59
2023/11/23 11:51:05;;;;;;;13.48;9.57;;;;;;;;;;4972623;28;20058;-52
2023/11/23 11:53:32;;;;;;;15.05;9.35;;;;;;;;;;4971663;28;20035;-55
2023/11/23 11:55:58;;;;;;;13.07;10.63;;;;;;;;;;4977918;28;20081;-50
2023/11/23 11:58:24;;;;;;;13.95;10.27;;;;;;;;;;4968563;28;20481;-54
2023/11/23 12:00:50;;;;;;;12.48;10.30;;;;;;;;;;4969415;28;20081;-56
2023/11/23 12:03:16;;;;;;;14.85;11.32;;;;;;;;;;4972254;28;20058;-47
2023/11/23 12:05:45;;;;;;;14.43;11.40;;;;;;;;;;4971787;28;20035;-51
2023/11/23 12:08:11;;;;;;;17.05;11.60;;;;;;;;;;4971144;28;20023;-62
2023/11/23 12:10:40;;;;;;;11.75;10.52;;;;;;;;;;4972208;28;20058;-60
2023/11/23 12:13:14;;;;;;;15.45;10.77;;;;;;;;;;4971981;28;20101;-60
2023/11/23 12:15:46;;;;;;;17.90;11.23;;;;;;;;;;4971782;28;20062;-51
2023/11/23 12:18:14;;;;;;;14.57;11.32;;;;;;;;;;4969636;28;20179;-60
2023/11/23 12:20:41;;;;;;;15.98;10.88;;;;;;;;;;4951687;28;20050;-52
2023/11/23 12:23:08;;;;;;;14.13;10.60;;;;;;;;;;4958374;28;20057;-55
2023/11/23 12:25:35;;;;;;;18.10;12.43;;;;;;;;;;4970965;28;20037;-57
2023/11/23 12:28:04;;;;;;;16.30;10.43;;;;;;;;;;4969401;28;20068;-59
2023/11/23 12:30:31;;;;;;;16.15;9.50;;;;;;;;;;4969478;28;20067;-59
2023/11/23 12:32:58;;;;;;;14.75;8.98;;;;;;;;;;4971571;28;20110;-53
2023/11/23 12:35:24;;;;;;;12.80;9.30;;;;;;;;;;4968680;28;20049;-52
2023/11/23 12:37:51;;;;;;;13.50;9.38;;;;;;;;;;4966338;28;20114;-53
2023/11/23 12:40:17;;;;;;;16.05;9.88;;;;;;;;;;4969323;28;20425;-54
2023/11/23 12:42:43;;;;;;;12.00;8.90;;;;;;;;;;4951035;28;20485;-49
2023/11/23 12:45:09;;;;;;;13.68;9.20;;;;;;;;;;4965601;28;20055;-48
2023/11/23 12:47:36;;;;;;;13.23;8.73;;;;;;;;;;4967420;28;20038;-50
2023/11/23 12:50:05;;;;;;;11.70;9.82;;;;;;;;;;4967458;28;20023;-49
2023/11/23 12:52:34;;;;;;;11.93;9.07;;;;;;;;;;4950007;28;20090;-53
2023/11/23 12:55:01;;;;;;;15.05;9.82;;;;;;;;;;4965093;28;20038;-52
2023/11/23 12:57:30;;;;;;;15.65;9.77;;;;;;;;;;4964153;28;20569;-58
2023/11/23 12:59:56;;;;;;;14.93;10.55;;;;;;;;;;4948250;28;20097;-55
2023/11/23 13:02:22;;;;;;;12.68;8.98;;;;;;;;;;4969999;28;20038;-54
2023/11/23 13:04:48;;;;;;;13.65;9.98;;;;;;;;;;4971328;28;20050;-53
2023/11/23 13:07:14;;;;;;;16.55;10.50;;;;;;;;;;4971968;28;20058;-59
2023/11/23 13:09:40;;;;;;;13.75;9.52;;;;;;;;;;4956796;28;20086;-58
2023/11/23 13:12:08;;;;;;;13.40;10.52;;;;;;;;;;4971607;28;20031;-58
2023/11/23 13:14:35;;;;;;;13.60;9.55;;;;;;;;;;4975112;28;20077;-56
2023/11/23 13:17:02;;;;;;;17.60;10.18;;;;;;;;;;4973607;28;20023;-54
2023/11/23 13:19:31;;;;;;;10.73;9.40;;;;;;;;;;4974410;28;20043;-53
2023/11/23 13:21:57;;;;;;;14.63;10.45;;;;;;;;;;4975063;28;20050;-57
2023/11/23 13:24:24;;;;;;;14.80;11.43;;;;;;;;;;4973496;28;20106;-56
2023/11/23 13:26:51;;;;;;;14.30;11.38;;;;;;;;;;4973703;28;20022;-53
2023/11/23 13:29:17;;;;;;;15.45;11.00;;;;;;;;;;4973966;28;20578;-59
2023/11/23 13:31:43;;;;;;;13.10;10.38;;;;;;;;;;4973936;28;20134;-57
2023/11/23 13:34:10;;;;;;;15.60;10.45;;;;;;;;;;4972448;28;20023;-52
2023/11/23 13:36:36;;;;;;;14.93;10.45;;;;;;;;;;4974539;28;20543;-50
2023/11/23 13:39:02;;;;;;;13.27;10.45;;;;;;;;;;4974506;28;20106;-61
2023/11/23 13:41:30;;;;;;;14.57;10.65;;;;;;;;;;4956900;28;20026;-63
2023/11/23 13:43:56;;;;;;;12.10;10.80;;;;;;;;;;4966912;28;20353;-60
2023/11/23 13:46:22;;;;;;;15.50;11.27;;;;;;;;;;4973273;28;20516;-61
2023/11/23 13:48:50;;;;;;;14.15;11.35;;;;;;;;;;4970233;28;20110;-60
2023/11/23 13:51:20;;;;;;;16.98;10.93;;;;;;;;;;4973101;28;20113;-58
2023/11/23 13:53:47;;;;;;;14.63;10.43;;;;;;;;;;4955786;28;20027;-52
2023/11/23 13:56:14;;;;;;;16.17;11.25;;;;;;;;;;4973509;28;20019;-52
2023/11/23 13:58:40;;;;;;;14.73;11.43;;;;;;;;;;4974100;28;20054;-51
2023/11/23 14:01:06;;;;;;;16.55;11.32;;;;;;;;;;4974199;28;20464;-57
2023/11/23 14:03:34;;;;;;;16.63;11.82;;;;;;;;;;4972362;28;20389;-61
2023/11/23 14:06:02;;;;;;;13.88;10.90;;;;;;;;;;4973176;28;20114;-63
2023/11/23 14:08:28;;;;;;;15.35;11.90;;;;;;;;;;4970781;28;20066;-53
2023/11/23 14:10:54;;;;;;;14.48;12.63;;;;;;;;;;4974268;28;20391;-54
2023/11/23 14:13:20;;;;;;;16.08;11.25;;;;;;;;;;4974351;28;20042;-46
2023/11/23 14:15:46;;;;;;;21.13;13.10;;;;;;;;;;4974004;28;20031;-49
2023/11/23 14:18:13;;;;;;;15.10;11.82;;;;;;;;;;4972504;28;20066;-64
2023/11/23 14:20:42;;;;;;;16.27;12.48;;;;;;;;;;4972056;28;20043;-58